EGMC

Southend Airport

Southend, United Kingdom
METAR EGMC 220620Z 00000KT 4000 BR NSC 11/10 Q1010
Observed Flight Rules
Apr-22 @ 06:20 UTC (34 minutes ago) Instrument Flight Rules
Visibility Clouds Conditions
4,007 meters
  • Clear skies
  • Mist
Temperatures Readings
Current 11°C / 52°F
Dewpoint 10°C / 50°F
Humidity 94%
Altimeter 29.82" Hg
Pressure 1010 hPa
Elevation 15
METAR EGMC 220620Z 00000KT 4000 BR NSC 11/10 Q1010
Observed Flight Rules
Apr-22 @ 06:20 UTC
(34 minutes ago)
IFR
Clouds
  • Clear skies
Conditions
  • Mist
Temperature Dewpoint
11°C / 52°F 10°C / 50°F
Humidity Altimeter Pressure
94% 29.82" Hg 1010 hPa